createdAt,value
2022-11-05T00:02:06.928Z,2.10
2022-11-05T00:05:12.340Z,2.17
2022-11-05T00:08:21.884Z,2.30
2022-11-05T00:11:15.224Z,2.43
2022-11-05T00:14:23.625Z,2.10
2022-11-05T00:17:10.600Z,1.97
2022-11-05T00:19:57.643Z,1.90
2022-11-05T00:23:03.179Z,2.20
2022-11-05T00:26:11.341Z,2.23
2022-11-05T00:28:58.370Z,2.10
2022-11-05T00:31:45.397Z,2.37
2022-11-05T00:34:32.392Z,2.10
2022-11-05T00:37:19.389Z,2.40
2022-11-05T00:40:07.115Z,2.47
2022-11-05T00:43:12.925Z,2.43
2022-11-05T00:46:00.117Z,2.60
2022-11-05T00:49:05.763Z,2.40
2022-11-05T00:52:12.744Z,2.63
2022-11-05T00:54:59.776Z,2.40
2022-11-05T00:57:46.829Z,2.23
2022-11-05T01:00:35.815Z,2.03
2022-11-05T01:03:37.273Z,1.90
2022-11-05T01:06:24.237Z,2.47
2022-11-05T01:09:11.339Z,2.17
2022-11-05T01:11:58.378Z,2.30
2022-11-05T01:14:45.327Z,2.13
2022-11-05T01:17:32.368Z,2.20
2022-11-05T01:20:19.732Z,2.17
2022-11-05T01:23:12.131Z,2.17
2022-11-05T01:26:00.614Z,2.17
2022-11-05T01:28:52.095Z,1.80
2022-11-05T01:31:39.152Z,2.00
2022-11-05T01:34:26.141Z,1.87
2022-11-05T01:37:13.714Z,1.57
2022-11-05T01:40:00.990Z,1.53
2022-11-05T01:42:48.074Z,1.67
2022-11-05T01:45:35.116Z,1.53
2022-11-05T01:48:28.602Z,1.50
2022-11-05T01:51:18.936Z,1.60
2022-11-05T01:54:11.730Z,2.17
2022-11-05T01:57:06.740Z,1.50
2022-11-05T01:59:58.649Z,1.50
2022-11-05T02:02:45.969Z,1.43
2022-11-05T02:05:34.129Z,1.60
2022-11-05T02:08:55.866Z,1.70
2022-11-05T02:11:42.919Z,1.60
2022-11-05T02:14:29.997Z,1.70
2022-11-05T02:17:27.804Z,1.70
2022-11-05T02:20:52.532Z,1.90
2022-11-05T02:24:22.099Z,1.93
2022-11-05T02:27:15.109Z,2.20
2022-11-05T02:30:07.362Z,2.23
2022-11-05T02:33:14.019Z,2.30
2022-11-05T02:36:25.702Z,2.20
2022-11-05T02:39:22.348Z,2.10
2022-11-05T02:42:44.119Z,1.80
2022-11-05T02:45:50.608Z,1.90
2022-11-05T02:48:52.878Z,1.90
2022-11-05T02:51:45.888Z,1.90
2022-11-05T02:54:41.196Z,2.00
2022-11-05T02:57:29.603Z,1.93
2022-11-05T03:00:38.244Z,2.30
2022-11-05T03:03:40.851Z,2.17
2022-11-05T03:06:43.059Z,2.13
2022-11-05T03:09:41.970Z,2.20
2022-11-05T03:12:42.829Z,2.20
2022-11-05T03:16:02.484Z,2.10
2022-11-05T03:19:12.797Z,1.83
2022-11-05T03:22:08.407Z,2.20
2022-11-05T03:25:00.473Z,2.33
2022-11-05T03:27:54.043Z,2.33
2022-11-05T03:30:43.678Z,2.33
2022-11-05T03:33:34.588Z,2.00
2022-11-05T03:36:30.732Z,2.57
2022-11-05T03:39:23.007Z,2.37
2022-11-05T03:42:15.206Z,2.30
2022-11-05T03:45:09.432Z,2.33
2022-11-05T03:47:59.871Z,2.57
2022-11-05T03:51:08.849Z,2.20
2022-11-05T03:53:59.796Z,2.23
2022-11-05T03:56:55.701Z,2.37
2022-11-05T03:59:46.239Z,2.50
2022-11-05T04:02:33.526Z,2.47
2022-11-05T04:05:20.784Z,2.90
2022-11-05T04:08:27.895Z,2.57
2022-11-05T04:11:33.578Z,2.33
2022-11-05T04:14:20.564Z,2.90
2022-11-05T04:17:08.739Z,2.17
2022-11-05T04:20:14.165Z,2.70
2022-11-05T04:23:22.296Z,2.63
2022-11-05T04:26:09.292Z,3.40
2022-11-05T04:29:14.907Z,3.70
2022-11-05T04:32:01.912Z,3.83
2022-11-05T04:34:48.895Z,4.50
2022-11-05T04:37:35.948Z,4.40
2022-11-05T04:40:23.484Z,4.73
2022-11-05T04:43:15.709Z,4.27
2022-11-05T04:46:02.743Z,4.53
2022-11-05T04:48:49.792Z,4.60
2022-11-05T04:51:36.825Z,4.67
2022-11-05T04:54:23.816Z,4.23
2022-11-05T04:57:10.861Z,4.27
2022-11-05T04:59:57.850Z,3.97
2022-11-05T05:02:45.224Z,3.70
2022-11-05T05:05:32.215Z,3.87
2022-11-05T05:08:19.160Z,3.60
2022-11-05T05:11:08.929Z,3.77
2022-11-05T05:13:55.925Z,3.73
2022-11-05T05:16:42.908Z,3.80
2022-11-05T05:19:29.957Z,4.10
2022-11-05T05:22:16.990Z,4.23
2022-11-05T05:25:04.373Z,4.33
2022-11-05T05:27:51.408Z,4.23
2022-11-05T05:30:38.406Z,4.70
2022-11-05T05:33:25.620Z,4.07
2022-11-05T05:36:12.651Z,4.10
2022-11-05T05:38:59.661Z,4.03
2022-11-05T05:41:46.654Z,4.30
2022-11-05T05:44:33.635Z,4.40
2022-11-05T05:47:20.623Z,4.83
2022-11-05T05:50:07.823Z,5.00
2022-11-05T05:52:54.800Z,5.33
2022-11-05T05:55:41.762Z,4.60
2022-11-05T05:58:33.262Z,4.90
2022-11-05T06:01:21.268Z,4.63
2022-11-05T06:04:10.127Z,4.87
2022-11-05T06:06:57.113Z,5.80
2022-11-05T06:09:44.088Z,5.57
2022-11-05T06:12:31.081Z,5.83
2022-11-05T06:15:18.052Z,5.97
2022-11-05T06:18:05.089Z,5.83
2022-11-05T06:20:52.074Z,6.57
2022-11-05T06:23:40.982Z,5.80
2022-11-05T06:26:28.328Z,6.23
2022-11-05T06:29:15.361Z,6.70
2022-11-05T06:32:02.486Z,5.87
2022-11-05T06:34:49.848Z,6.27
2022-11-05T06:37:37.409Z,6.00
2022-11-05T06:40:25.015Z,6.60
2022-11-05T06:43:13.492Z,6.33
2022-11-05T06:46:02.520Z,6.37
2022-11-05T06:48:51.172Z,6.43
2022-11-05T06:51:38.662Z,6.57
2022-11-05T06:54:26.474Z,7.33
2022-11-05T06:57:14.227Z,7.23
2022-11-05T07:00:07.361Z,6.93
2022-11-05T07:02:56.914Z,6.80
2022-11-05T07:05:48.594Z,7.33
2022-11-05T07:08:37.996Z,6.90
2022-11-05T07:11:25.649Z,7.10
2022-11-05T07:14:13.173Z,7.23
2022-11-05T07:17:00.825Z,6.53
2022-11-05T07:19:48.145Z,6.77
2022-11-05T07:22:35.882Z,6.70
2022-11-05T07:25:22.909Z,6.17
2022-11-05T07:28:11.091Z,6.73
2022-11-05T07:30:59.092Z,6.97
2022-11-05T07:33:46.225Z,6.20
2022-11-05T07:36:33.229Z,7.57
2022-11-05T07:39:20.460Z,7.20
2022-11-05T07:42:07.532Z,7.87
2022-11-05T07:44:54.571Z,8.00
2022-11-05T07:47:49.201Z,7.63
2022-11-05T07:50:37.177Z,7.37
2022-11-05T07:53:24.286Z,6.93
2022-11-05T07:56:12.149Z,8.07
2022-11-05T07:58:59.337Z,7.70
2022-11-05T08:01:46.578Z,7.37
2022-11-05T08:04:33.754Z,7.90
2022-11-05T08:07:20.806Z,7.47
2022-11-05T08:10:08.559Z,7.57
2022-11-05T08:12:56.504Z,7.93
2022-11-05T08:15:43.953Z,7.53
2022-11-05T08:18:32.496Z,7.27
2022-11-05T08:21:19.694Z,8.10
2022-11-05T08:24:07.097Z,7.23
2022-11-05T08:26:54.267Z,7.47
2022-11-05T08:29:41.297Z,8.60
2022-11-05T08:32:28.390Z,8.93
2022-11-05T08:35:15.415Z,8.07
2022-11-05T08:38:04.940Z,8.10
2022-11-05T08:40:57.789Z,7.87
2022-11-05T08:43:45.147Z,9.00
2022-11-05T08:46:32.281Z,8.53
2022-11-05T08:49:19.386Z,8.40
2022-11-05T08:52:06.439Z,8.13
2022-11-05T08:54:53.405Z,7.33
2022-11-05T08:57:40.532Z,7.67
2022-11-05T09:00:29.755Z,6.47
2022-11-05T09:03:17.244Z,6.63
2022-11-05T09:06:04.420Z,6.60
2022-11-05T09:08:51.615Z,6.50
2022-11-05T09:12:05.755Z,6.40
2022-11-05T09:14:45.785Z,7.17
2022-11-05T09:17:32.874Z,6.77
2022-11-05T09:20:19.880Z,6.33
2022-11-05T09:23:07.943Z,6.73
2022-11-05T09:25:55.549Z,6.37
2022-11-05T09:28:43.631Z,5.97
2022-11-05T09:31:30.627Z,6.50
2022-11-05T09:34:17.589Z,5.87
2022-11-05T09:37:04.593Z,5.77
2022-11-05T09:39:51.566Z,5.80
2022-11-05T09:42:43.085Z,5.67
2022-11-05T09:45:33.521Z,5.30
2022-11-05T09:48:26.068Z,5.77
2022-11-05T09:51:20.808Z,5.47
2022-11-05T09:54:12.944Z,6.03
2022-11-05T09:57:02.781Z,6.20
2022-11-05T09:59:54.396Z,5.77
2022-11-05T10:02:48.264Z,5.27
2022-11-05T10:05:37.571Z,5.40
2022-11-05T10:08:32.629Z,6.13
2022-11-05T10:11:37.752Z,6.37
2022-11-05T10:14:29.108Z,6.07
2022-11-05T10:17:22.375Z,5.60
2022-11-05T10:20:28.018Z,8.67
2022-11-05T10:23:18.803Z,8.83
2022-11-05T10:26:11.562Z,7.37
2022-11-05T10:28:58.594Z,6.97
2022-11-05T10:31:45.685Z,6.47
2022-11-05T10:34:36.767Z,6.10
2022-11-05T10:37:24.629Z,6.40
2022-11-05T10:40:40.854Z,6.17
2022-11-05T10:43:35.790Z,6.00
2022-11-05T10:46:36.187Z,8.40
2022-11-05T10:49:42.691Z,7.07
2022-11-05T10:52:40.421Z,5.63
2022-11-05T10:55:30.032Z,5.50
2022-11-05T10:58:16.968Z,5.37
2022-11-05T11:01:12.033Z,5.07
2022-11-05T11:04:23.435Z,5.03
2022-11-05T11:07:23.811Z,4.83
2022-11-05T11:10:21.571Z,3.90
2022-11-05T11:13:21.444Z,4.27
2022-11-05T11:16:44.723Z,4.33
2022-11-05T11:19:31.726Z,4.20
2022-11-05T11:22:21.309Z,4.90
2022-11-05T11:25:26.057Z,4.57
2022-11-05T11:28:20.190Z,4.83
2022-11-05T11:31:16.503Z,4.97
2022-11-05T11:34:07.527Z,4.83
2022-11-05T11:37:02.964Z,4.13
2022-11-05T11:39:57.925Z,3.60
2022-11-05T11:42:48.885Z,3.80
2022-11-05T11:45:51.744Z,3.70
2022-11-05T11:48:40.910Z,3.60
2022-11-05T11:51:36.739Z,3.43
2022-11-05T11:54:28.855Z,3.40
2022-11-05T11:57:22.409Z,3.40
2022-11-05T12:00:10.138Z,3.10
2022-11-05T12:03:21.073Z,3.20
2022-11-05T12:06:28.698Z,3.10
2022-11-05T12:09:22.186Z,2.70
2022-11-05T12:12:13.934Z,3.13
2022-11-05T12:15:25.846Z,2.90
2022-11-05T12:18:18.997Z,3.10
2022-11-05T12:21:07.656Z,2.83
2022-11-05T12:24:33.222Z,2.60
2022-11-05T12:27:40.540Z,2.70
2022-11-05T12:30:37.112Z,2.10
2022-11-05T12:33:29.837Z,2.40
2022-11-05T12:36:39.681Z,2.13
2022-11-05T12:39:29.619Z,2.30
2022-11-05T12:42:28.949Z,1.90
2022-11-05T12:45:56.555Z,1.93
2022-11-05T12:49:02.727Z,2.00
2022-11-05T12:52:31.297Z,1.90
2022-11-05T12:55:21.976Z,2.10
2022-11-05T12:58:11.478Z,1.80
2022-11-05T13:01:19.804Z,1.90
2022-11-05T13:04:38.079Z,2.13
2022-11-05T13:07:37.602Z,2.30
2022-11-05T13:10:44.748Z,1.97
2022-11-05T13:14:12.945Z,1.50
2022-11-05T13:17:04.971Z,1.50
2022-11-05T13:20:20.705Z,1.80
2022-11-05T13:23:38.444Z,1.50
2022-11-05T13:26:50.776Z,1.50
2022-11-05T13:29:48.501Z,2.00
2022-11-05T13:32:39.211Z,1.80
2022-11-05T13:35:40.726Z,2.03
2022-11-05T13:38:46.406Z,2.00
2022-11-05T13:41:54.662Z,1.80
2022-11-05T13:45:19.929Z,1.73
2022-11-05T13:48:28.189Z,1.80
2022-11-05T13:51:49.388Z,2.10
2022-11-05T13:54:47.148Z,1.80
2022-11-05T13:57:41.496Z,1.57
2022-11-05T14:00:34.865Z,1.90
2022-11-05T14:03:22.156Z,1.80
2022-11-05T14:06:11.401Z,1.90
2022-11-05T14:09:03.312Z,1.80
2022-11-05T14:11:56.080Z,2.13
2022-11-05T14:14:46.832Z,2.53
2022-11-05T14:18:03.408Z,2.20
2022-11-05T14:20:59.944Z,2.37
2022-11-05T14:23:52.421Z,1.97
2022-11-05T14:26:39.409Z,2.20
2022-11-05T14:29:41.322Z,2.30
2022-11-05T14:32:44.091Z,2.20
2022-11-05T14:35:38.249Z,2.47
2022-11-05T14:38:27.739Z,2.07
2022-11-05T14:41:15.317Z,2.23
2022-11-05T14:44:07.925Z,2.93
2022-11-05T14:47:07.720Z,2.97
2022-11-05T14:50:03.725Z,2.53
2022-11-05T14:52:59.688Z,2.57
2022-11-05T14:55:46.741Z,2.40
2022-11-05T14:58:39.919Z,2.80
2022-11-05T15:01:35.776Z,2.03
2022-11-05T15:04:28.931Z,2.30
2022-11-05T15:07:37.526Z,5.57
2022-11-05T15:10:35.116Z,4.10
2022-11-05T15:13:33.420Z,2.30
2022-11-05T15:16:48.465Z,2.10
2022-11-05T15:19:37.061Z,2.20
2022-11-05T15:22:31.029Z,1.90
2022-11-05T15:25:39.603Z,2.80
2022-11-05T15:28:29.591Z,3.80
2022-11-05T15:31:16.465Z,5.23
2022-11-05T15:34:17.251Z,7.73
2022-11-05T15:37:25.789Z,20.23
2022-11-05T15:40:23.592Z,32.67
2022-11-05T15:43:19.557Z,12.73
2022-11-05T15:46:25.565Z,6.77
2022-11-05T15:49:13.698Z,3.83
2022-11-05T15:52:00.934Z,3.30
2022-11-05T15:55:06.322Z,3.00
2022-11-05T15:57:59.324Z,2.53
2022-11-05T16:00:48.283Z,3.73
2022-11-05T16:03:38.677Z,4.07
2022-11-05T16:06:35.691Z,3.10
2022-11-05T16:09:34.126Z,2.10
2022-11-05T16:12:21.107Z,1.70
2022-11-05T16:15:07.986Z,2.17
2022-11-05T16:17:59.700Z,1.47
2022-11-05T16:21:04.079Z,1.50
2022-11-05T16:24:00.097Z,1.40
2022-11-05T16:27:03.484Z,0.90
2022-11-05T16:30:00.007Z,1.00
2022-11-05T16:32:47.363Z,1.20
2022-11-05T16:35:39.693Z,1.30
2022-11-05T16:38:27.683Z,1.20
2022-11-05T16:41:16.861Z,1.23
2022-11-05T16:44:03.926Z,1.30
2022-11-05T16:46:51.064Z,1.13
2022-11-05T16:49:38.801Z,1.30
2022-11-05T16:52:25.768Z,1.37
2022-11-05T16:55:14.537Z,1.50
2022-11-05T16:58:01.652Z,1.40
2022-11-05T17:00:56.649Z,1.40
2022-11-05T17:03:44.984Z,1.27
2022-11-05T17:06:31.952Z,1.10
2022-11-05T17:09:19.010Z,1.40
2022-11-05T17:12:06.081Z,1.30
2022-11-05T17:14:53.040Z,1.67
2022-11-05T17:17:39.993Z,1.67
2022-11-05T17:20:29.054Z,1.50
2022-11-05T17:23:18.442Z,2.00
2022-11-05T17:26:08.740Z,2.30
2022-11-05T17:28:55.713Z,1.80
2022-11-05T17:31:43.780Z,2.23
2022-11-05T17:34:30.761Z,2.40
2022-11-05T17:37:17.889Z,2.13
2022-11-05T17:40:06.365Z,2.13
2022-11-05T17:42:53.963Z,2.30
2022-11-05T17:45:43.005Z,2.30
2022-11-05T17:48:29.980Z,2.30
2022-11-05T17:51:18.708Z,2.30
2022-11-05T17:54:07.500Z,2.00
2022-11-05T17:56:54.447Z,1.50
2022-11-05T17:59:42.026Z,1.63
2022-11-05T18:02:29.467Z,1.57
2022-11-05T18:05:18.328Z,1.80
2022-11-05T18:08:06.355Z,1.43
2022-11-05T18:10:53.756Z,1.70
2022-11-05T18:13:40.773Z,1.43
2022-11-05T18:16:27.753Z,1.50
2022-11-05T18:19:14.951Z,1.20
2022-11-05T18:22:01.933Z,1.30
2022-11-05T18:24:49.308Z,1.60
2022-11-05T18:27:37.065Z,1.80
2022-11-05T18:30:24.084Z,5.10
2022-11-05T18:33:11.493Z,5.13
2022-11-05T18:35:58.719Z,2.70
2022-11-05T18:38:46.262Z,2.00
2022-11-05T18:41:33.336Z,1.63
2022-11-05T18:44:22.773Z,1.27
2022-11-05T18:47:09.824Z,1.47
2022-11-05T18:49:56.937Z,1.37
2022-11-05T18:52:44.152Z,1.40
2022-11-05T18:55:31.125Z,1.40
2022-11-05T18:58:18.192Z,1.40
2022-11-05T19:01:12.919Z,1.30
2022-11-05T19:04:00.268Z,2.27
2022-11-05T19:06:47.373Z,3.53
2022-11-05T19:09:35.800Z,3.07
2022-11-05T19:12:22.985Z,1.60
2022-11-05T19:15:10.190Z,1.60
2022-11-05T19:17:57.176Z,1.50
2022-11-05T19:20:44.149Z,1.30
2022-11-05T19:23:31.107Z,1.50
2022-11-05T19:26:27.252Z,1.43
2022-11-05T19:29:15.435Z,1.63
2022-11-05T19:32:02.464Z,1.90
2022-11-05T19:34:49.416Z,1.90
2022-11-05T19:37:36.929Z,2.30
2022-11-05T19:40:24.120Z,4.17
2022-11-05T19:43:11.216Z,5.30
2022-11-05T19:45:58.233Z,4.43
2022-11-05T19:48:45.583Z,2.70
2022-11-05T19:51:33.236Z,3.20
2022-11-05T19:54:20.699Z,2.70
2022-11-05T19:57:07.971Z,2.13
2022-11-05T19:59:55.781Z,2.10
2022-11-05T20:02:45.601Z,1.60
2022-11-05T20:05:33.904Z,1.70
2022-11-05T20:08:20.975Z,2.23
2022-11-05T20:11:08.524Z,2.30
2022-11-05T20:13:57.120Z,2.20
2022-11-05T20:16:45.546Z,1.63
2022-11-05T20:19:33.482Z,1.70
2022-11-05T20:22:20.455Z,1.73
2022-11-05T20:25:08.126Z,1.60
2022-11-05T20:27:58.174Z,1.47
2022-11-05T20:30:45.132Z,1.70
2022-11-05T20:33:32.080Z,2.73
2022-11-05T20:36:22.165Z,2.67
2022-11-05T20:39:10.078Z,4.43
2022-11-05T20:41:57.166Z,4.10
2022-11-05T20:44:44.140Z,3.30
2022-11-05T20:47:31.173Z,4.00
2022-11-05T20:50:18.225Z,2.57
2022-11-05T20:53:05.182Z,2.57
2022-11-05T20:55:52.151Z,2.70
2022-11-05T20:58:40.206Z,2.50
2022-11-05T21:01:30.189Z,3.00
2022-11-05T21:04:17.511Z,3.03
2022-11-05T21:07:04.503Z,2.33
2022-11-05T21:09:51.451Z,3.30
2022-11-05T21:12:38.402Z,3.90
2022-11-05T21:15:25.405Z,2.90
2022-11-05T21:18:13.631Z,2.97
2022-11-05T21:21:12.018Z,4.00
2022-11-05T21:23:59.007Z,4.13
2022-11-05T21:26:46.313Z,3.93
2022-11-05T21:29:33.275Z,3.00
2022-11-05T21:32:20.275Z,4.50
2022-11-05T21:35:07.584Z,4.87
2022-11-05T21:37:54.540Z,5.37
2022-11-05T21:40:41.832Z,4.67
2022-11-05T21:43:29.069Z,3.70
2022-11-05T21:46:16.182Z,2.50
2022-11-05T21:49:03.844Z,2.57
2022-11-05T21:52:09.871Z,2.93
2022-11-05T21:55:15.312Z,3.90
2022-11-05T21:58:28.361Z,2.80
2022-11-05T22:01:15.575Z,2.77
2022-11-05T22:04:03.379Z,3.60
2022-11-05T22:06:50.501Z,3.80
2022-11-05T22:09:37.652Z,2.83
2022-11-05T22:12:25.506Z,2.60
2022-11-05T22:15:13.577Z,2.47
2022-11-05T22:18:00.554Z,2.23
2022-11-05T22:20:47.535Z,2.50
2022-11-05T22:23:34.486Z,3.10
2022-11-05T22:26:21.507Z,3.20
2022-11-05T22:29:09.051Z,3.47
2022-11-05T22:31:57.110Z,3.20
2022-11-05T22:34:44.207Z,4.53
2022-11-05T22:37:31.217Z,5.07
2022-11-05T22:40:19.549Z,4.60
2022-11-05T22:43:08.120Z,4.50
2022-11-05T22:45:55.131Z,4.10
2022-11-05T22:48:42.912Z,4.07
2022-11-05T22:51:32.370Z,4.33
2022-11-05T22:54:19.355Z,4.73
2022-11-05T22:57:06.377Z,4.70
2022-11-05T22:59:53.468Z,4.70
2022-11-05T23:02:40.536Z,4.90
2022-11-05T23:05:27.579Z,5.23
2022-11-05T23:08:32.981Z,5.63
2022-11-05T23:11:41.288Z,5.53
2022-11-05T23:14:28.378Z,4.50
2022-11-05T23:17:33.785Z,5.97
2022-11-05T23:20:41.350Z,5.97
2022-11-05T23:23:46.968Z,7.30
2022-11-05T23:26:51.215Z,5.63
2022-11-05T23:29:38.191Z,5.00
2022-11-05T23:32:25.694Z,5.47
2022-11-05T23:35:12.863Z,4.93
2022-11-05T23:38:18.579Z,4.63
2022-11-05T23:41:24.841Z,4.57
2022-11-05T23:44:30.584Z,5.20
2022-11-05T23:47:35.896Z,5.40
2022-11-05T23:50:23.006Z,5.90
2022-11-05T23:53:10.172Z,5.50
2022-11-05T23:56:03.912Z,6.03
2022-11-05T23:58:50.896Z,6.50
